createdAt,value
2019-04-01T00:02:08.359Z,47.02
2019-04-01T00:05:16.855Z,47.27
2019-04-01T00:08:25.488Z,46.96
2019-04-01T00:11:34.240Z,46.99
2019-04-01T00:14:42.877Z,47.05
2019-04-01T00:17:51.522Z,47.39
2019-04-01T00:21:00.385Z,47.61
2019-04-01T00:24:09.315Z,47.53
2019-04-01T00:27:17.812Z,47.48
2019-04-01T00:30:26.993Z,47.45
2019-04-01T00:33:35.481Z,47.51
2019-04-01T00:36:43.970Z,47.59
2019-04-01T00:40:02.703Z,47.88
2019-04-01T00:43:26.517Z,48.02
2019-04-01T00:46:53.059Z,47.77
2019-04-01T00:50:01.588Z,47.91
2019-04-01T00:53:10.240Z,48.09
2019-04-01T00:56:18.827Z,48.01
2019-04-01T00:59:27.691Z,48.20
2019-04-01T01:02:35.792Z,48.05
2019-04-01T01:05:54.918Z,48.19
2019-04-01T01:09:05.131Z,48.53
2019-04-01T01:12:13.640Z,48.50
2019-04-01T01:15:22.136Z,48.44
2019-04-01T01:18:30.633Z,48.53
2019-04-01T01:21:49.371Z,49.00
2019-04-01T01:24:57.880Z,49.04
2019-04-01T01:28:06.493Z,48.90
2019-04-01T01:31:15.109Z,49.28
2019-04-01T01:34:23.848Z,49.19
2019-04-01T01:37:32.468Z,48.74
2019-04-01T01:40:41.095Z,48.83
2019-04-01T01:44:00.199Z,48.86
2019-04-01T01:47:19.297Z,48.90
2019-04-01T01:50:27.936Z,49.24
2019-04-01T01:53:36.501Z,49.08
2019-04-01T01:56:44.991Z,49.16
2019-04-01T01:59:53.475Z,49.32
2019-04-01T02:03:12.312Z,49.80
2019-04-01T02:06:21.797Z,49.78
2019-04-01T02:09:30.373Z,49.99
2019-04-01T02:12:49.284Z,50.02
2019-04-01T02:15:57.884Z,50.22
2019-04-01T02:19:06.209Z,50.27
2019-04-01T02:22:14.710Z,50.22
2019-04-01T02:25:33.443Z,50.26
2019-04-01T02:28:41.949Z,50.70
2019-04-01T02:31:50.467Z,51.00
2019-04-01T02:34:59.052Z,50.70
2019-04-01T02:38:07.649Z,50.94
2019-04-01T02:41:17.234Z,51.10
2019-04-01T02:44:25.748Z,51.25
2019-04-01T02:47:34.403Z,51.37
2019-04-01T02:50:45.037Z,51.49
2019-04-01T02:53:53.736Z,51.68
2019-04-01T02:57:02.788Z,51.68
2019-04-01T03:00:11.588Z,51.93
2019-04-01T03:03:20.089Z,52.08
2019-04-01T03:06:28.688Z,51.90
2019-04-01T03:09:37.197Z,52.00
2019-04-01T03:12:58.025Z,51.99
2019-04-01T03:16:06.489Z,52.09
2019-04-01T03:19:14.989Z,52.24
2019-04-01T03:22:23.570Z,52.22
2019-04-01T03:25:32.042Z,52.32
2019-04-01T03:28:40.534Z,52.38
2019-04-01T03:31:59.793Z,52.01
2019-04-01T03:35:19.157Z,52.32
2019-04-01T03:38:38.194Z,52.29
2019-04-01T03:41:46.655Z,52.79
2019-04-01T03:44:55.650Z,52.73
2019-04-01T03:48:04.342Z,52.43
2019-04-01T03:51:12.924Z,52.46
2019-04-01T03:54:21.525Z,52.18
2019-04-01T03:57:30.042Z,52.32
2019-04-01T04:00:48.799Z,52.61
2019-04-01T04:03:57.471Z,52.77
2019-04-01T04:07:06.057Z,52.94
2019-04-01T04:10:14.757Z,52.85
2019-04-01T04:13:23.360Z,53.29
2019-04-01T04:16:31.965Z,53.34
2019-04-01T04:19:40.627Z,53.38
2019-04-01T04:22:59.358Z,53.71
2019-04-01T04:26:08.261Z,53.79
2019-04-01T04:29:16.920Z,53.76
2019-04-01T04:32:25.730Z,53.78
2019-04-01T04:35:34.374Z,53.92
2019-04-01T04:38:42.974Z,54.07
2019-04-01T04:41:51.563Z,54.13
2019-04-01T04:45:00.422Z,54.41
2019-04-01T04:48:09.300Z,54.40
2019-04-01T04:51:17.918Z,54.73
2019-04-01T04:54:26.561Z,54.84
2019-04-01T04:57:35.072Z,54.90
2019-04-01T05:00:53.917Z,54.89
2019-04-01T05:04:02.600Z,54.99
2019-04-01T05:07:11.278Z,55.03
2019-04-01T05:10:19.660Z,54.94
2019-04-01T05:13:28.360Z,55.09
2019-04-01T05:16:37.047Z,55.14
2019-04-01T05:19:45.553Z,55.03
2019-04-01T05:23:05.693Z,55.29
2019-04-01T05:26:15.146Z,55.51
2019-04-01T05:29:25.569Z,55.54
2019-04-01T05:32:36.873Z,55.64
2019-04-01T05:35:45.777Z,55.64
2019-04-01T05:38:54.765Z,55.20
2019-04-01T05:42:04.373Z,55.35
2019-04-01T05:45:23.293Z,55.31
2019-04-01T05:48:32.272Z,55.34
2019-04-01T05:51:51.208Z,55.04
2019-04-01T05:55:00.473Z,54.87
2019-04-01T05:58:19.388Z,54.22
2019-04-01T06:01:36.551Z,54.60
2019-04-01T06:04:45.078Z,54.17
2019-04-01T06:07:54.417Z,54.38
2019-04-01T06:11:13.104Z,54.06
2019-04-01T06:14:22.021Z,53.65
2019-04-01T06:17:30.539Z,52.73
2019-04-01T06:20:39.054Z,51.81
2019-04-01T06:23:47.567Z,51.13
2019-04-01T06:26:56.069Z,50.94
2019-04-01T06:30:15.527Z,50.47
2019-04-01T06:33:25.415Z,49.81
2019-04-01T06:36:34.138Z,48.81
2019-04-01T06:39:42.779Z,47.66
2019-04-01T06:42:51.485Z,47.00
2019-04-01T06:46:00.002Z,45.61
2019-04-01T06:49:08.665Z,45.26
2019-04-01T06:52:17.259Z,43.38
2019-04-01T06:55:26.084Z,43.86
2019-04-01T06:58:34.784Z,42.55
2019-04-01T07:01:43.381Z,41.95
2019-04-01T07:05:02.349Z,40.29
2019-04-01T07:08:11.652Z,39.56
2019-04-01T07:11:30.560Z,38.97
2019-04-01T07:14:39.468Z,39.80
2019-04-01T07:17:48.070Z,39.20
2019-04-01T07:20:56.601Z,38.13
2019-04-01T07:24:05.784Z,37.03
2019-04-01T07:27:14.288Z,36.50
2019-04-01T07:30:23.132Z,36.28
2019-04-01T07:33:31.754Z,35.92
2019-04-01T07:36:40.498Z,35.71
2019-04-01T07:39:50.715Z,34.76
2019-04-01T07:42:59.312Z,35.02
2019-04-01T07:46:08.346Z,34.82
2019-04-01T07:49:17.458Z,33.54
2019-04-01T07:52:25.978Z,32.15
2019-04-01T07:55:34.703Z,31.33
2019-04-01T07:58:43.207Z,31.07
2019-04-01T08:01:52.923Z,30.84
2019-04-01T08:05:01.744Z,29.21
2019-04-01T08:08:10.628Z,29.73
2019-04-01T08:11:19.163Z,29.42
2019-04-01T08:14:27.697Z,29.62
2019-04-01T08:17:36.580Z,29.72
2019-04-01T08:20:46.250Z,28.98
2019-04-01T08:24:05.197Z,28.59
2019-04-01T08:27:13.721Z,27.60
2019-04-01T08:30:22.670Z,27.23
2019-04-01T08:33:31.234Z,26.37
2019-04-01T08:36:39.977Z,24.95
2019-04-01T08:39:48.751Z,25.21
2019-04-01T08:42:57.272Z,25.31
2019-04-01T08:46:05.819Z,24.77
2019-04-01T08:49:14.535Z,24.97
2019-04-01T08:52:23.378Z,25.06
2019-04-01T08:55:32.099Z,24.47
2019-04-01T08:58:40.993Z,24.11
2019-04-01T09:01:50.994Z,24.19
2019-04-01T09:05:10.461Z,24.52
2019-04-01T09:08:29.403Z,25.16
2019-04-01T09:11:38.875Z,25.91
2019-04-01T09:14:48.466Z,27.18
2019-04-01T09:17:57.116Z,27.07
2019-04-01T09:21:05.679Z,27.88
2019-04-01T09:24:14.356Z,28.20
2019-04-01T09:27:22.969Z,27.84
2019-04-01T09:30:32.627Z,28.03
2019-04-01T09:33:41.239Z,28.10
2019-04-01T09:36:49.833Z,28.05
2019-04-01T09:39:58.498Z,27.28
2019-04-01T09:43:07.145Z,26.60
2019-04-01T09:46:15.747Z,26.69
2019-04-01T09:49:24.314Z,26.34
2019-04-01T09:52:43.209Z,25.95
2019-04-01T09:55:51.851Z,25.78
2019-04-01T09:59:00.418Z,25.17
2019-04-01T10:02:09.121Z,25.57
2019-04-01T10:05:19.222Z,25.07
2019-04-01T10:08:41.514Z,24.70
2019-04-01T10:11:38.292Z,25.17
2019-04-01T10:14:47.060Z,24.87
2019-04-01T10:17:54.762Z,25.10
2019-04-01T10:21:03.381Z,25.19
2019-04-01T10:24:12.006Z,25.24
2019-04-01T10:27:20.633Z,24.43
2019-04-01T10:30:39.378Z,24.47
2019-04-01T10:33:48.033Z,24.70
2019-04-01T10:36:56.738Z,23.82
2019-04-01T10:40:06.326Z,23.85
2019-04-01T10:43:25.097Z,22.96
2019-04-01T10:46:33.925Z,22.98
2019-04-01T10:49:42.616Z,22.61
2019-04-01T10:52:51.471Z,23.29
2019-04-01T10:56:00.173Z,22.78
2019-04-01T10:59:08.880Z,21.91
2019-04-01T11:02:18.516Z,21.97
2019-04-01T11:05:27.396Z,21.97
2019-04-01T11:08:36.089Z,21.91
2019-04-01T11:11:44.817Z,21.80
2019-04-01T11:15:03.694Z,21.61
2019-04-01T11:18:12.427Z,20.85
2019-04-01T11:21:21.109Z,20.83
2019-04-01T11:24:29.947Z,21.57
2019-04-01T11:27:39.908Z,21.51
2019-04-01T11:30:48.654Z,21.43
2019-04-01T11:33:59.376Z,20.41
2019-04-01T11:37:08.048Z,21.60
2019-04-01T11:40:16.677Z,21.48
2019-04-01T11:43:25.348Z,21.92
2019-04-01T11:46:34.080Z,21.54
2019-04-01T11:49:42.823Z,21.11
2019-04-01T11:52:51.448Z,21.19
2019-04-01T11:56:10.935Z,21.19
2019-04-01T11:59:19.854Z,20.66
2019-04-01T12:02:28.457Z,20.77
2019-04-01T12:05:47.227Z,20.20
2019-04-01T12:08:55.965Z,19.98
2019-04-01T12:12:04.107Z,20.30
2019-04-01T12:15:13.138Z,20.75
2019-04-01T12:18:21.665Z,20.55
2019-04-01T12:21:32.265Z,20.72
2019-04-01T12:24:40.919Z,20.62
2019-04-01T12:27:49.539Z,20.70
2019-04-01T12:30:58.578Z,20.97
2019-04-01T12:34:06.995Z,19.88
2019-04-01T12:37:25.868Z,19.79
2019-04-01T12:40:34.602Z,19.48
2019-04-01T12:43:42.384Z,19.41
2019-04-01T12:47:01.263Z,19.30
2019-04-01T12:50:10.950Z,19.72
2019-04-01T12:53:19.485Z,20.01
2019-04-01T12:56:29.201Z,19.47
2019-04-01T12:59:37.816Z,18.88
2019-04-01T13:02:46.354Z,18.69
2019-04-01T13:05:55.035Z,18.35
2019-04-01T13:09:04.277Z,19.53
2019-04-01T13:12:11.368Z,19.30
2019-04-01T13:15:20.094Z,19.15
2019-04-01T13:18:28.639Z,19.36
2019-04-01T13:21:37.339Z,19.74
2019-04-01T13:24:45.877Z,19.58
2019-04-01T13:27:54.475Z,19.60
2019-04-01T13:31:13.469Z,20.05
2019-04-01T13:34:22.233Z,20.97
2019-04-01T13:37:30.858Z,21.60
2019-04-01T13:40:40.031Z,22.29
2019-04-01T13:43:48.567Z,22.96
2019-04-01T13:46:57.171Z,23.06
2019-04-01T13:50:07.850Z,22.80
2019-04-01T13:53:16.482Z,23.43
2019-04-01T13:56:25.092Z,23.71
2019-04-01T13:59:48.108Z,23.68
2019-04-01T14:02:43.978Z,24.36
2019-04-01T14:05:53.648Z,23.47
2019-04-01T14:09:02.286Z,24.32
2019-04-01T14:12:10.819Z,24.55
2019-04-01T14:15:20.584Z,24.36
2019-04-01T14:18:29.203Z,24.41
2019-04-01T14:21:48.010Z,24.77
2019-04-01T14:24:56.628Z,25.33
2019-04-01T14:28:05.124Z,25.67
2019-04-01T14:31:13.807Z,25.67
2019-04-01T14:34:23.427Z,25.76
2019-04-01T14:37:42.696Z,25.18
2019-04-01T14:40:51.254Z,25.25
2019-04-01T14:43:59.866Z,25.77
2019-04-01T14:47:09.212Z,25.79
2019-04-01T14:50:29.698Z,25.96
2019-04-01T14:53:38.427Z,26.08
2019-04-01T14:56:47.120Z,26.09
2019-04-01T14:59:56.319Z,26.23
2019-04-01T15:03:05.061Z,26.33
2019-04-01T15:06:13.705Z,26.56
2019-04-01T15:09:23.614Z,26.22
2019-04-01T15:12:32.365Z,26.58
2019-04-01T15:15:42.063Z,26.83
2019-04-01T15:18:51.970Z,26.89
2019-04-01T15:22:01.724Z,26.72
2019-04-01T15:25:20.562Z,26.20
2019-04-01T15:28:29.231Z,25.90
2019-04-01T15:31:37.839Z,25.69
2019-04-01T15:34:46.589Z,26.02
2019-04-01T15:37:55.201Z,25.91
2019-04-01T15:41:03.778Z,25.90
2019-04-01T15:44:12.422Z,26.13
2019-04-01T15:47:21.120Z,26.22
2019-04-01T15:50:39.924Z,26.34
2019-04-01T15:53:48.666Z,26.69
2019-04-01T15:56:58.201Z,25.67
2019-04-01T16:00:09.178Z,25.86
2019-04-01T16:03:18.200Z,26.17
2019-04-01T16:06:26.910Z,26.05
2019-04-01T16:09:35.564Z,25.88
2019-04-01T16:12:43.160Z,26.01
2019-04-01T16:15:51.993Z,26.03
2019-04-01T16:19:00.791Z,26.21
2019-04-01T16:22:10.640Z,26.41
2019-04-01T16:25:19.300Z,26.22
2019-04-01T16:28:29.301Z,26.42
2019-04-01T16:31:48.157Z,26.00
2019-04-01T16:34:55.302Z,26.08
2019-04-01T16:38:02.892Z,25.84
2019-04-01T16:41:21.833Z,25.84
2019-04-01T16:44:30.615Z,25.83
2019-04-01T16:47:40.060Z,26.03
2019-04-01T16:50:49.008Z,26.24
2019-04-01T16:53:57.685Z,26.24
2019-04-01T16:57:06.589Z,26.42
2019-04-01T17:00:18.439Z,26.40
2019-04-01T17:03:37.300Z,26.23
2019-04-01T17:06:45.906Z,26.51
2019-04-01T17:09:54.528Z,26.55
2019-04-01T17:13:03.135Z,26.54
2019-04-01T17:16:11.848Z,26.52
2019-04-01T17:19:20.448Z,26.53
2019-04-01T17:22:29.075Z,26.38
2019-04-01T17:25:37.720Z,26.35
2019-04-01T17:28:56.615Z,26.45
2019-04-01T17:32:05.542Z,26.74
2019-04-01T17:35:14.518Z,26.50
2019-04-01T17:38:23.095Z,26.50
2019-04-01T17:41:31.725Z,26.45
2019-04-01T17:44:40.324Z,26.52
2019-04-01T17:47:48.948Z,26.51
2019-04-01T17:50:59.167Z,26.69
2019-04-01T17:54:07.802Z,26.81
2019-04-01T17:57:16.509Z,26.90
2019-04-01T18:00:26.963Z,27.20
2019-04-01T18:03:35.504Z,27.04
2019-04-01T18:06:54.527Z,27.08
2019-04-01T18:10:03.255Z,27.29
2019-04-01T18:13:11.874Z,27.25
2019-04-01T18:16:20.428Z,27.48
2019-04-01T18:19:28.924Z,27.53
2019-04-01T18:22:37.441Z,27.85
2019-04-01T18:25:56.183Z,27.91
2019-04-01T18:29:04.843Z,27.97
2019-04-01T18:32:13.561Z,28.56
2019-04-01T18:35:22.177Z,28.50
2019-04-01T18:38:30.690Z,28.72
2019-04-01T18:41:37.807Z,28.94
2019-04-01T18:44:57.926Z,29.15
2019-04-01T18:48:06.598Z,29.31
2019-04-01T18:51:15.102Z,29.28
2019-04-01T18:54:23.946Z,29.55
2019-04-01T18:57:32.467Z,29.38
2019-04-01T19:00:40.974Z,29.82
2019-04-01T19:03:49.609Z,29.97
2019-04-01T19:07:08.945Z,30.15
2019-04-01T19:10:17.847Z,30.29
2019-04-01T19:13:26.521Z,30.47
2019-04-01T19:16:35.151Z,30.68
2019-04-01T19:19:43.859Z,30.92
2019-04-01T19:22:52.531Z,30.87
2019-04-01T19:26:01.214Z,30.89
2019-04-01T19:29:09.978Z,30.98
2019-04-01T19:32:18.587Z,31.35
2019-04-01T19:35:27.117Z,31.39
2019-04-01T19:38:45.943Z,31.69
2019-04-01T19:41:54.593Z,31.54
2019-04-01T19:45:05.068Z,31.62
2019-04-01T19:48:13.786Z,31.61
2019-04-01T19:51:22.384Z,31.75
2019-04-01T19:54:33.786Z,31.71
2019-04-01T19:57:41.310Z,31.89
2019-04-01T20:00:50.223Z,32.20
2019-04-01T20:03:59.019Z,32.41
2019-04-01T20:07:07.712Z,32.38
2019-04-01T20:10:17.283Z,32.37
2019-04-01T20:13:26.400Z,32.23
2019-04-01T20:16:46.981Z,32.49
2019-04-01T20:19:55.903Z,32.53
2019-04-01T20:23:04.647Z,32.73
2019-04-01T20:26:13.341Z,32.83
2019-04-01T20:29:22.169Z,32.76
2019-04-01T20:32:30.868Z,32.76
2019-04-01T20:35:39.529Z,32.93
2019-04-01T20:38:48.190Z,32.87
2019-04-01T20:41:57.994Z,32.95
2019-04-01T20:45:10.864Z,33.20
2019-04-01T20:48:19.029Z,33.38
2019-04-01T20:51:27.693Z,33.28
2019-04-01T20:54:36.333Z,33.46
2019-04-01T20:57:55.144Z,33.56
2019-04-01T21:01:03.968Z,34.06
2019-04-01T21:04:12.583Z,33.83
2019-04-01T21:07:21.336Z,33.77
2019-04-01T21:10:29.897Z,34.02
2019-04-01T21:13:38.489Z,33.94
2019-04-01T21:16:47.043Z,33.94
2019-04-01T21:19:55.564Z,34.10
2019-04-01T21:23:14.466Z,34.10
2019-04-01T21:26:23.204Z,34.38
2019-04-01T21:29:31.910Z,34.70
2019-04-01T21:32:40.579Z,34.95
2019-04-01T21:35:49.159Z,34.77
2019-04-01T21:38:58.884Z,34.76
2019-04-01T21:42:17.841Z,34.97
2019-04-01T21:45:26.624Z,35.03
2019-04-01T21:48:35.435Z,35.00
2019-04-01T21:51:44.273Z,35.10
2019-04-01T21:54:52.813Z,35.23
2019-04-01T21:58:01.603Z,35.26
2019-04-01T22:01:10.565Z,35.35
2019-04-01T22:04:19.259Z,35.26
2019-04-01T22:07:27.953Z,35.67
2019-04-01T22:10:36.813Z,35.40
2019-04-01T22:13:45.498Z,35.72
2019-04-01T22:16:54.038Z,35.76
2019-04-01T22:20:02.776Z,35.63
2019-04-01T22:23:11.441Z,35.74
2019-04-01T22:26:20.037Z,36.06
2019-04-01T22:29:38.798Z,36.13
2019-04-01T22:32:47.423Z,36.32
2019-04-01T22:35:56.665Z,36.30
2019-04-01T22:39:07.073Z,36.59
2019-04-01T22:42:16.112Z,36.26
2019-04-01T22:45:35.015Z,36.38
2019-04-01T22:48:43.663Z,36.49
2019-04-01T22:51:52.318Z,36.44
2019-04-01T22:55:00.977Z,36.67
2019-04-01T22:58:09.637Z,36.70
2019-04-01T23:01:18.188Z,36.83
2019-04-01T23:04:26.968Z,37.47
2019-04-01T23:07:36.581Z,37.18
2019-04-01T23:10:45.448Z,37.03
2019-04-01T23:13:54.145Z,37.40
2019-04-01T23:17:02.894Z,37.21
2019-04-01T23:20:11.721Z,37.12
2019-04-01T23:23:20.644Z,37.30
2019-04-01T23:26:29.290Z,37.46
2019-04-01T23:29:38.000Z,37.32
2019-04-01T23:32:46.637Z,37.47
2019-04-01T23:35:55.252Z,37.30
2019-04-01T23:39:07.152Z,37.29
2019-04-01T23:42:15.847Z,36.99
2019-04-01T23:45:24.528Z,37.06
2019-04-01T23:48:33.124Z,37.15
2019-04-01T23:51:51.953Z,36.95
2019-04-01T23:55:00.705Z,36.89
2019-04-01T23:58:10.726Z,36.87
